Time;durP1;ratioP1;P1;durP2;ratioP2;P2;SDS_P1;SDS_P2;PMS_P1;PMS_P2;Temp;Humidity;BMP_temperature;BMP_pressure;BME280_temperature;BME280_humidity;BME280_pressure;Samples;Min_cycle;Max_cycle;Signal;HPM_P1;HPM_P2
2023/02/27 00:02:24;;;;;;;3.23;1.70;;;1.90;99.90;;;;;;4749861;30;20218;-72
2023/02/27 00:04:51;;;;;;;3.73;1.70;;;1.90;99.90;;;;;;4741267;30;20226;-76
2023/02/27 00:07:18;;;;;;;4.60;1.60;;;2.00;99.90;;;;;;4740705;30;20217;-71
2023/02/27 00:09:45;;;;;;;3.80;1.60;;;1.90;99.90;;;;;;4749936;30;20214;-75
2023/02/27 00:12:12;;;;;;;4.20;1.60;;;1.90;99.90;;;;;;4751164;30;20209;-83
2023/02/27 00:14:38;;;;;;;3.30;1.60;;;1.90;99.90;;;;;;4753136;30;20201;-78
2023/02/27 00:17:05;;;;;;;7.10;2.00;;;1.90;99.90;;;;;;4744672;30;20569;-75
2023/02/27 00:19:33;;;;;;;4.20;1.70;;;2.00;99.90;;;;;;4749923;30;20234;-77
2023/02/27 00:22:00;;;;;;;5.47;2.30;;;2.00;99.90;;;;;;4740425;30;20732;-76
2023/02/27 00:24:27;;;;;;;6.70;2.50;;;1.80;99.90;;;;;;4732083;30;20245;-73
2023/02/27 00:26:58;;;;;;;5.80;2.50;;;1.70;99.90;;;;;;4733629;30;20207;-75
2023/02/27 00:29:26;;;;;;;4.80;2.77;;;1.70;99.90;;;;;;4736318;30;20206;-75
2023/02/27 00:31:52;;;;;;;5.63;2.90;;;1.50;99.90;;;;;;4735094;30;20206;-74
2023/02/27 00:34:19;;;;;;;8.90;3.23;;;1.50;99.90;;;;;;4734906;30;20210;-74
2023/02/27 00:36:52;;;;;;;6.77;3.20;;;1.30;99.90;;;;;;4735133;30;20200;-75
2023/02/27 00:39:19;;;;;;;8.37;3.50;;;1.10;99.90;;;;;;4735213;30;20214;-77
2023/02/27 00:41:46;;;;;;;5.87;3.40;;;1.10;99.90;;;;;;4736320;30;20244;-72
2023/02/27 00:44:16;;;;;;;9.37;3.77;;;1.10;99.90;;;;;;4734817;30;20230;-74
2023/02/27 00:46:42;;;;;;;8.80;4.00;;;1.10;99.90;;;;;;4736212;30;20203;-79
2023/02/27 00:49:09;;;;;;;7.77;3.80;;;1.00;99.90;;;;;;4738252;30;20224;-79
2023/02/27 00:51:36;;;;;;;11.47;4.07;;;0.90;99.90;;;;;;4737577;30;20197;-79
2023/02/27 00:54:03;;;;;;;8.53;3.90;;;1.00;99.90;;;;;;4737445;30;20216;-82
2023/02/27 00:56:30;;;;;;;7.90;3.80;;;1.10;99.90;;;;;;4737501;30;20200;-77
2023/02/27 00:58:57;;;;;;;9.57;4.00;;;1.20;99.90;;;;;;4753503;30;20209;-78
2023/02/27 01:01:24;;;;;;;9.83;3.80;;;1.30;99.90;;;;;;4737149;30;20200;-79
2023/02/27 01:03:51;;;;;;;9.77;3.70;;;1.30;99.90;;;;;;4737509;30;20299;-79
2023/02/27 01:06:18;;;;;;;7.20;3.97;;;1.30;99.90;;;;;;4753381;30;20570;-80
2023/02/27 01:08:44;;;;;;;6.10;3.70;;;1.30;99.90;;;;;;4737465;30;20217;-76
2023/02/27 01:11:12;;;;;;;8.33;4.30;;;1.30;99.90;;;;;;4737593;30;20208;-77
2023/02/27 01:13:38;;;;;;;8.20;4.30;;;1.30;99.90;;;;;;4738552;30;20540;-74
2023/02/27 01:16:07;;;;;;;7.83;3.90;;;1.40;99.90;;;;;;4737220;30;20306;-73
2023/02/27 01:18:34;;;;;;;8.73;3.77;;;1.40;99.90;;;;;;4736939;30;20213;-76
2023/02/27 01:21:01;;;;;;;8.10;3.70;;;1.40;99.90;;;;;;4737025;30;20238;-73
2023/02/27 01:23:27;;;;;;;6.53;3.80;;;1.30;99.90;;;;;;4736810;30;20214;-74
2023/02/27 01:25:54;;;;;;;6.80;3.97;;;1.30;99.90;;;;;;4752315;30;20205;-72
2023/02/27 01:28:21;;;;;;;8.03;4.17;;;1.30;99.90;;;;;;4737167;30;20209;-73
2023/02/27 01:30:48;;;;;;;9.90;4.03;;;1.30;99.90;;;;;;4737265;30;20205;-73
2023/02/27 01:33:15;;;;;;;8.43;4.37;;;1.10;99.90;;;;;;4753098;30;20589;-74
2023/02/27 01:35:42;;;;;;;9.43;4.40;;;1.20;99.90;;;;;;4722342;30;20241;-74
2023/02/27 01:38:09;;;;;;;8.03;4.07;;;1.30;99.90;;;;;;4737203;30;20205;-75
2023/02/27 01:40:38;;;;;;;7.00;3.87;;;1.10;99.90;;;;;;4752806;30;20291;-76
2023/02/27 01:45:47;;;;;;;6.43;3.60;;;1.10;99.90;;;;;;4951341;24;20263;-77
2023/02/27 01:48:23;;;;;;;7.40;4.10;;;1.10;99.90;;;;;;4772126;30;20226;-79
2023/02/27 01:51:12;;;;;;;6.37;3.53;;;1.10;99.90;;;;;;4788448;30;20192;-76
2023/02/27 01:53:41;;;;;;;7.23;3.90;;;1.20;99.90;;;;;;4754637;30;20220;-72
2023/02/27 01:56:23;;;;;;;6.07;3.80;;;0.90;99.90;;;;;;4754076;30;20212;-74
2023/02/27 01:58:52;;;;;;;6.37;4.10;;;0.80;99.90;;;;;;4754019;30;20216;-73
2023/02/27 02:01:21;;;;;;;6.67;3.60;;;0.80;99.90;;;;;;4754219;30;20209;-72
2023/02/27 02:04:18;;;;;;;8.73;3.80;;;0.80;99.90;;;;;;4756550;30;20285;-73
2023/02/27 02:06:48;;;;;;;6.10;3.53;;;1.00;99.90;;;;;;4765775;30;20667;-74
2023/02/27 02:09:17;;;;;;;6.50;3.50;;;1.10;99.90;;;;;;4771797;30;20208;-76
2023/02/27 02:11:44;;;;;;;8.67;3.53;;;1.20;99.90;;;;;;4771663;30;20302;-77
2023/02/27 02:14:11;;;;;;;6.27;3.47;;;1.20;99.90;;;;;;4787605;30;20199;-76
2023/02/27 02:17:11;;;;;;;9.13;4.17;;;1.10;99.90;;;;;;4772004;30;20220;-72
2023/02/27 02:20:16;;;;;;;7.10;3.37;;;1.00;99.90;;;;;;4764495;30;20237;-81
2023/02/27 02:23:13;;;;;;;6.60;3.37;;;1.00;99.90;;;;;;4769745;30;20570;-80
2023/02/27 02:25:59;;;;;;;6.27;3.10;;;1.00;99.90;;;;;;4753761;30;20236;-82
2023/02/27 02:28:32;;;;;;;5.77;3.30;;;1.00;99.90;;;;;;4769784;30;20197;-71
2023/02/27 02:31:26;;;;;;;6.37;3.30;;;1.10;99.90;;;;;;4753645;30;20217;-75
2023/02/27 02:34:46;;;;;;;5.47;2.90;;;1.10;99.90;;;;;;4741950;30;20241;-69
2023/02/27 02:37:43;;;;;;;4.87;2.90;;;1.00;99.90;;;;;;4691666;30;20662;-71
2023/02/27 02:40:25;;;;;;;6.37;3.00;;;1.00;99.90;;;;;;4697092;30;20207;-73
2023/02/27 02:42:58;;;;;;;6.13;2.83;;;1.10;99.90;;;;;;4682948;30;20224;-82
2023/02/27 02:45:43;;;;;;;5.33;2.90;;;1.10;99.90;;;;;;4682590;30;20247;-79
2023/02/27 02:48:20;;;;;;;4.73;2.93;;;1.00;99.90;;;;;;4682963;30;20211;-78
2023/02/27 02:51:01;;;;;;;4.60;2.77;;;1.00;99.90;;;;;;4684220;30;20218;-83
2023/02/27 02:53:29;;;;;;;4.23;2.90;;;1.10;99.90;;;;;;4700125;30;20213;-78
2023/02/27 02:56:30;;;;;;;5.93;3.37;;;1.10;99.90;;;;;;4728907;30;20216;-77
2023/02/27 02:59:28;;;;;;;6.17;3.40;;;1.30;99.90;;;;;;4728858;30;20217;-77
2023/02/27 03:02:01;;;;;;;7.63;4.33;;;1.40;99.90;;;;;;4687970;30;20311;-74
2023/02/27 03:05:00;;;;;;;7.67;3.93;;;1.10;99.90;;;;;;4665553;30;20246;-74
2023/02/27 03:07:56;;;;;;;6.63;4.20;;;1.20;99.90;;;;;;4673678;30;20215;-82
2023/02/27 03:10:32;;;;;;;8.87;4.40;;;1.10;99.90;;;;;;4679877;30;20641;-81
2023/02/27 03:13:05;;;;;;;8.93;4.00;;;0.90;99.90;;;;;;4691392;30;20211;-78
2023/02/27 03:15:45;;;;;;;9.43;4.90;;;0.80;99.90;;;;;;4694213;30;20221;-81
2023/02/27 03:18:24;;;;;;;7.33;4.20;;;0.60;99.90;;;;;;4699841;30;20294;-82
2023/02/27 03:20:56;;;;;;;8.07;3.93;;;0.90;99.90;;;;;;4662294;30;20295;-82
2023/02/27 03:23:38;;;;;;;6.57;4.37;;;1.00;99.90;;;;;;4648733;30;20217;-80
2023/02/27 03:26:06;;;;;;;8.93;4.50;;;1.00;99.90;;;;;;4662739;30;20220;-81
2023/02/27 03:28:39;;;;;;;8.80;4.83;;;1.10;99.90;;;;;;4662686;30;20231;-80
2023/02/27 03:31:24;;;;;;;8.60;5.60;;;1.20;99.90;;;;;;4662689;30;20208;-74
2023/02/27 03:33:58;;;;;;;10.07;5.97;;;1.20;99.90;;;;;;4662286;30;20220;-79
2023/02/27 03:36:48;;;;;;;13.67;6.30;;;1.20;99.90;;;;;;4663684;30;20684;-80
2023/02/27 03:39:43;;;;;;;13.03;7.30;;;1.10;99.90;;;;;;4718336;30;20213;-79
2023/02/27 03:42:28;;;;;;;14.27;7.67;;;1.20;99.90;;;;;;4722944;30;20274;-80
2023/02/27 03:45:27;;;;;;;14.20;7.33;;;1.30;99.90;;;;;;4751170;30;20642;-77
2023/02/27 03:47:54;;;;;;;12.70;6.70;;;1.30;99.90;;;;;;4736312;30;20212;-77
2023/02/27 03:50:21;;;;;;;10.80;6.83;;;1.30;99.90;;;;;;4738924;30;20212;-79
2023/02/27 03:52:48;;;;;;;10.40;6.57;;;1.30;99.90;;;;;;4738746;30;20627;-79
2023/02/27 03:55:19;;;;;;;9.43;6.53;;;1.20;99.90;;;;;;4755650;30;20300;-78
2023/02/27 03:57:48;;;;;;;9.77;6.00;;;1.20;99.90;;;;;;4738878;30;20653;-82
2023/02/27 04:00:21;;;;;;;9.87;5.47;;;1.20;99.90;;;;;;4723993;30;20233;-83
2023/02/27 04:02:50;;;;;;;9.57;5.23;;;1.20;99.90;;;;;;4753128;30;20213;-82
2023/02/27 04:05:18;;;;;;;8.10;4.67;;;1.10;99.90;;;;;;4723689;30;20294;-79
2023/02/27 04:08:11;;;;;;;9.57;4.67;;;1.10;99.90;;;;;;4738689;30;20206;-80
2023/02/27 04:11:01;;;;;;;8.03;4.97;;;1.10;99.90;;;;;;4753340;30;20210;-79
2023/02/27 04:13:59;;;;;;;6.57;4.40;;;1.00;99.90;;;;;;4682524;30;20690;-76
2023/02/27 04:16:32;;;;;;;8.67;4.40;;;1.00;99.90;;;;;;4682590;30;20208;-82
2023/02/27 04:19:17;;;;;;;7.47;4.27;;;1.00;99.90;;;;;;4667787;30;20638;-72
2023/02/27 04:22:12;;;;;;;7.87;4.57;;;0.90;99.90;;;;;;4653798;30;20726;-73
2023/02/27 04:24:50;;;;;;;7.90;4.10;;;0.90;99.90;;;;;;4684298;30;20613;-72
2023/02/27 04:27:29;;;;;;;7.13;4.30;;;0.90;99.90;;;;;;4699363;30;20223;-72
2023/02/27 04:30:26;;;;;;;10.13;4.53;;;0.90;99.90;;;;;;4690982;30;20212;-72
2023/02/27 04:33:12;;;;;;;8.23;4.50;;;1.00;99.90;;;;;;4667797;30;20224;-73
2023/02/27 04:36:04;;;;;;;6.77;4.30;;;1.00;99.90;;;;;;4667596;30;20667;-73
2023/02/27 04:38:40;;;;;;;6.53;4.20;;;1.10;99.90;;;;;;4667786;30;20216;-74
2023/02/27 04:41:19;;;;;;;7.30;3.90;;;1.10;99.90;;;;;;4675284;30;20228;-72
2023/02/27 04:43:48;;;;;;;5.47;3.60;;;1.10;99.90;;;;;;4699109;30;20246;-74
2023/02/27 04:46:18;;;;;;;7.20;3.57;;;1.00;99.90;;;;;;4698822;30;20256;-74
2023/02/27 04:48:52;;;;;;;8.20;4.07;;;1.00;99.90;;;;;;4699244;30;20212;-72
2023/02/27 04:51:26;;;;;;;6.43;4.20;;;1.10;99.90;;;;;;4725022;30;20267;-72
2023/02/27 04:54:01;;;;;;;8.57;4.13;;;1.00;99.90;;;;;;4734695;30;20276;-73
2023/02/27 04:56:33;;;;;;;6.33;3.70;;;0.90;99.90;;;;;;4735984;30;20560;-73
2023/02/27 04:59:16;;;;;;;5.30;3.50;;;0.80;99.90;;;;;;4734381;30;20614;-74
2023/02/27 05:01:53;;;;;;;8.37;3.63;;;0.80;99.90;;;;;;4734765;30;20687;-74
2023/02/27 05:04:23;;;;;;;7.27;3.30;;;0.80;99.90;;;;;;4734389;30;20626;-73
2023/02/27 05:06:54;;;;;;;7.47;3.43;;;0.90;99.90;;;;;;4735642;30;20286;-76
2023/02/27 05:09:53;;;;;;;5.10;3.30;;;1.00;99.90;;;;;;4735613;30;20208;-73
2023/02/27 05:12:24;;;;;;;6.10;3.67;;;1.00;99.90;;;;;;4734435;30;20237;-71
2023/02/27 05:15:12;;;;;;;5.77;3.37;;;1.00;99.90;;;;;;4734112;30;20214;-72
2023/02/27 05:17:55;;;;;;;4.30;2.93;;;1.10;99.90;;;;;;4734223;30;20276;-72
2023/02/27 05:20:25;;;;;;;5.80;3.20;;;1.00;99.90;;;;;;4734032;30;20745;-72
2023/02/27 05:23:21;;;;;;;5.00;3.17;;;1.10;99.90;;;;;;4734056;30;20210;-73
2023/02/27 05:25:57;;;;;;;4.43;2.67;;;1.10;99.90;;;;;;4735199;30;20279;-74
2023/02/27 05:28:47;;;;;;;4.90;2.70;;;1.00;99.90;;;;;;4734060;30;20205;-74
2023/02/27 05:31:22;;;;;;;4.73;2.80;;;1.00;99.90;;;;;;4735364;30;20221;-77
2023/02/27 05:34:02;;;;;;;5.43;3.10;;;1.10;99.90;;;;;;4733902;30;20190;-72
2023/02/27 05:36:33;;;;;;;5.57;3.07;;;1.10;99.90;;;;;;4733673;30;20220;-78
2023/02/27 05:39:04;;;;;;;4.97;3.00;;;1.10;99.90;;;;;;4733856;30;20207;-73
2023/02/27 05:41:42;;;;;;;4.90;2.80;;;1.10;99.90;;;;;;4745040;30;20224;-73
2023/02/27 05:44:11;;;;;;;8.20;3.20;;;1.10;99.90;;;;;;4751509;30;20210;-72
2023/02/27 05:46:44;;;;;;;5.10;2.80;;;1.00;99.90;;;;;;4751395;30;20228;-73
2023/02/27 05:49:17;;;;;;;4.73;3.10;;;0.90;99.90;;;;;;4751307;30;20213;-72
2023/02/27 05:51:48;;;;;;;4.67;2.97;;;0.90;99.90;;;;;;4751325;30;20214;-74
2023/02/27 05:54:25;;;;;;;5.37;2.73;;;0.90;99.90;;;;;;4752450;30;20530;-72
2023/02/27 05:56:56;;;;;;;4.97;2.90;;;0.90;99.90;;;;;;4751664;30;20216;-72
2023/02/27 05:59:38;;;;;;;5.53;3.10;;;1.00;99.90;;;;;;4751454;30;20216;-74
2023/02/27 06:02:05;;;;;;;5.07;2.70;;;0.80;99.90;;;;;;4750945;30;20267;-72
2023/02/27 06:04:32;;;;;;;4.63;2.77;;;0.90;99.90;;;;;;4750917;30;20672;-72
2023/02/27 06:06:59;;;;;;;6.13;2.70;;;0.80;99.90;;;;;;4751479;30;20208;-72
2023/02/27 06:09:26;;;;;;;5.70;2.70;;;0.90;99.90;;;;;;4752639;30;20618;-71
2023/02/27 06:11:53;;;;;;;4.83;2.60;;;0.80;99.90;;;;;;4750799;30;20570;-71
2023/02/27 06:14:20;;;;;;;4.50;2.53;;;0.80;99.90;;;;;;4751029;30;20208;-72
2023/02/27 06:16:47;;;;;;;4.37;2.53;;;0.70;99.90;;;;;;4750917;30;20279;-71
2023/02/27 06:19:13;;;;;;;4.73;2.30;;;0.60;99.90;;;;;;4751168;30;20271;-72
2023/02/27 06:21:40;;;;;;;3.20;2.27;;;0.70;99.90;;;;;;4752251;30;20672;-70
2023/02/27 06:24:07;;;;;;;3.70;2.13;;;0.70;99.90;;;;;;4746203;30;20209;-71
2023/02/27 06:26:38;;;;;;;4.30;2.30;;;0.70;99.90;;;;;;4750735;30;20230;-71
2023/02/27 06:29:05;;;;;;;7.40;2.43;;;0.70;99.90;;;;;;4751063;30;20245;-73
2023/02/27 06:31:31;;;;;;;4.17;2.30;;;0.60;99.90;;;;;;4750874;30;20218;-73
2023/02/27 06:33:58;;;;;;;5.07;2.20;;;0.80;99.90;;;;;;4750793;30;20682;-71
2023/02/27 06:36:29;;;;;;;3.87;1.90;;;0.80;99.90;;;;;;4750506;30;20206;-72
2023/02/27 06:38:56;;;;;;;4.57;2.00;;;0.80;99.90;;;;;;4758874;30;20194;-79
2023/02/27 06:41:23;;;;;;;4.73;2.00;;;0.60;99.90;;;;;;4743893;30;20211;-80
2023/02/27 06:43:50;;;;;;;3.50;1.80;;;0.70;99.90;;;;;;4733418;30;20645;-76
2023/02/27 06:46:17;;;;;;;5.20;1.70;;;0.50;99.90;;;;;;4733083;30;20804;-80
2023/02/27 06:48:44;;;;;;;4.53;1.80;;;0.60;99.90;;;;;;4734835;30;20282;-79
2023/02/27 06:51:11;;;;;;;3.57;1.50;;;0.70;99.90;;;;;;4732826;30;20321;-72
2023/02/27 06:53:38;;;;;;;4.60;1.70;;;0.70;99.90;;;;;;4733138;30;20213;-75
2023/02/27 06:56:05;;;;;;;4.27;1.60;;;0.70;99.90;;;;;;4732603;30;20210;-74
2023/02/27 06:58:32;;;;;;;5.60;1.87;;;0.70;99.90;;;;;;4733028;30;20251;-72
2023/02/27 07:00:59;;;;;;;3.70;1.60;;;0.70;99.90;;;;;;4732740;30;20224;-71
2023/02/27 07:03:26;;;;;;;2.87;1.70;;;0.90;99.90;;;;;;4741131;30;20202;-72
2023/02/27 07:05:53;;;;;;;4.40;1.40;;;0.90;99.90;;;;;;4749681;30;20238;-71
2023/02/27 07:08:20;;;;;;;3.43;1.30;;;1.10;99.90;;;;;;4742516;30;20422;-71
2023/02/27 07:10:48;;;;;;;3.33;1.53;;;1.10;99.90;;;;;;4732928;30;20206;-71
2023/02/27 07:13:16;;;;;;;2.33;1.40;;;1.00;99.90;;;;;;4745320;30;20215;-76
2023/02/27 07:15:45;;;;;;;2.43;1.50;;;0.90;99.90;;;;;;4749800;30;20263;-73
2023/02/27 07:18:12;;;;;;;2.67;1.33;;;0.70;99.90;;;;;;4750203;30;20275;-79
2023/02/27 07:20:39;;;;;;;1.77;1.20;;;0.80;99.90;;;;;;4746256;30;20688;-76
2023/02/27 07:23:06;;;;;;;1.10;1.00;;;0.70;99.90;;;;;;4743449;30;20213;-78
2023/02/27 07:25:33;;;;;;;2.23;1.10;;;0.80;99.90;;;;;;4746463;30;20230;-75
2023/02/27 07:28:00;;;;;;;2.00;1.20;;;0.80;99.90;;;;;;4746550;30;20194;-77
2023/02/27 07:30:29;;;;;;;1.30;1.20;;;0.80;99.90;;;;;;4745127;30;20211;-70
2023/02/27 07:32:56;;;;;;;1.93;1.30;;;0.80;99.90;;;;;;4745919;30;20575;-73
2023/02/27 07:35:23;;;;;;;2.10;1.30;;;0.80;99.90;;;;;;4742157;30;20199;-70
2023/02/27 07:37:50;;;;;;;1.00;1.00;;;0.80;99.90;;;;;;4735818;30;20215;-71
2023/02/27 07:40:17;;;;;;;1.93;1.20;;;0.60;99.90;;;;;;4737332;30;20210;-71
2023/02/27 07:42:47;;;;;;;5.03;1.30;;;0.50;99.90;;;;;;4736261;30;20545;-72
2023/02/27 07:45:17;;;;;;;2.20;1.50;;;0.60;99.90;;;;;;4744646;30;20666;-70
2023/02/27 07:47:44;;;;;;;2.03;1.37;;;0.60;99.90;;;;;;4739232;30;20204;-76
2023/02/27 07:50:12;;;;;;;3.70;1.40;;;0.70;99.90;;;;;;4753670;30;20589;-80
2023/02/27 07:52:40;;;;;;;2.37;1.30;;;0.80;99.90;;;;;;4754539;30;20212;-75
2023/02/27 07:55:08;;;;;;;1.40;1.20;;;0.70;99.90;;;;;;4738856;30;20213;-83
2023/02/27 07:57:35;;;;;;;2.60;1.30;;;0.80;99.90;;;;;;4738686;30;20202;-80
2023/02/27 08:00:05;;;;;;;2.87;1.20;;;0.80;99.90;;;;;;4738975;30;20216;-75
2023/02/27 08:02:32;;;;;;;4.30;1.57;;;0.80;99.90;;;;;;4738771;30;20206;-74
2023/02/27 08:04:59;;;;;;;2.87;1.37;;;0.90;99.90;;;;;;4738719;30;20642;-72
2023/02/27 08:07:26;;;;;;;2.57;1.57;;;1.00;99.90;;;;;;4754533;30;20215;-76
2023/02/27 08:09:53;;;;;;;3.80;1.70;;;1.00;99.90;;;;;;4755227;30;20198;-73
2023/02/27 08:12:19;;;;;;;2.40;1.47;;;1.00;99.90;;;;;;4754383;30;20675;-80
2023/02/27 08:14:47;;;;;;;4.20;1.60;;;1.10;99.90;;;;;;4741646;30;20581;-77
2023/02/27 08:17:13;;;;;;;3.47;1.37;;;1.40;99.90;;;;;;4771213;30;20216;-69
2023/02/27 08:19:40;;;;;;;3.53;1.70;;;2.10;99.90;;;;;;4744135;30;20235;-69
2023/02/27 08:22:07;;;;;;;2.10;1.10;;;2.80;99.90;;;;;;4763299;30;20216;-70
2023/02/27 08:24:35;;;;;;;2.90;1.30;;;3.20;99.90;;;;;;4745177;30;20218;-70
2023/02/27 08:27:01;;;;;;;2.07;1.20;;;3.60;99.90;;;;;;4745029;30;20237;-77
2023/02/27 08:29:31;;;;;;;5.03;1.50;;;3.60;99.90;;;;;;4739299;30;20212;-85
2023/02/27 08:31:59;;;;;;;1.73;1.30;;;4.00;99.80;;;;;;4738261;30;20213;-67
2023/02/27 08:34:26;;;;;;;1.63;1.30;;;4.20;96.30;;;;;;4753605;30;20282;-73
2023/02/27 08:36:53;;;;;;;2.17;1.47;;;4.20;97.20;;;;;;4742464;30;20282;-68
2023/02/27 08:39:22;;;;;;;1.67;1.30;;;4.20;97.10;;;;;;4769613;30;20230;-74
2023/02/27 08:41:51;;;;;;;4.63;1.30;;;4.60;97.30;;;;;;4746250;30;20210;-69
2023/02/27 08:44:19;;;;;;;3.47;1.50;;;5.10;97.70;;;;;;4742903;30;20346;-76
2023/02/27 08:46:46;;;;;;;2.37;1.70;;;5.30;97.10;;;;;;4753688;30;20321;-71
2023/02/27 08:49:13;;;;;;;1.20;1.00;;;5.70;95.80;;;;;;4753886;30;20212;-74
2023/02/27 08:51:40;;;;;;;1.60;1.00;;;5.70;92.50;;;;;;4747992;30;20219;-74
2023/02/27 08:54:07;;;;;;;1.67;1.10;;;5.70;90.30;;;;;;4771307;30;20354;-71
2023/02/27 08:56:34;;;;;;;1.40;1.00;;;5.50;89.60;;;;;;4771106;30;20287;-76
2023/02/27 08:59:01;;;;;;;2.30;0.90;;;4.90;89.20;;;;;;4753550;30;20236;-75
2023/02/27 09:01:33;;;;;;;0.97;0.80;;;4.40;90.30;;;;;;4756671;30;20206;-71
2023/02/27 09:04:03;;;;;;;1.60;0.80;;;4.10;86.90;;;;;;4771295;30;20191;-72
2023/02/27 09:06:31;;;;;;;1.20;0.90;;;3.80;88.40;;;;;;4768175;30;20236;-71
2023/02/27 09:08:59;;;;;;;3.00;0.90;;;3.70;89.00;;;;;;4751550;30;20210;-78
2023/02/27 09:11:27;;;;;;;2.33;1.05;;;3.80;91.30;;;;;;4763372;30;20537;-76
2023/02/27 09:13:55;;;;;;;2.40;0.93;;;3.90;90.40;;;;;;4750448;30;20304;-74
2023/02/27 09:16:22;;;;;;;1.20;0.90;;;3.90;92.90;;;;;;4751142;30;20212;-76
2023/02/27 09:18:49;;;;;;;2.78;1.23;;;4.30;92.50;;;;;;4750445;30;20499;-72
2023/02/27 09:21:17;;;;;;;1.30;1.10;;;4.70;93.40;;;;;;4745898;30;20311;-76
2023/02/27 09:23:44;;;;;;;2.03;1.20;;;5.20;93.00;;;;;;4756491;30;20208;-76
2023/02/27 09:26:11;;;;;;;2.23;1.40;;;5.40;93.10;;;;;;4740014;30;20234;-77
2023/02/27 09:28:40;;;;;;;1.93;1.20;;;5.60;92.00;;;;;;4768458;30;20203;-78
2023/02/27 09:31:08;;;;;;;1.43;1.10;;;6.00;91.40;;;;;;4762053;30;20209;-80
2023/02/27 09:33:37;;;;;;;2.90;1.30;;;5.90;90.60;;;;;;4747036;30;20216;-79
2023/02/27 09:36:05;;;;;;;1.90;1.30;;;5.70;91.00;;;;;;4743905;30;20260;-75
2023/02/27 09:38:33;;;;;;;2.17;1.43;;;5.30;90.80;;;;;;4763669;30;20265;-77
2023/02/27 09:41:02;;;;;;;1.93;1.20;;;5.10;91.80;;;;;;4742907;30;20314;-75
2023/02/27 09:43:48;;;;;;;2.60;1.30;;;4.70;92.60;;;;;;4749628;30;20211;-76
2023/02/27 09:46:18;;;;;;;2.77;1.60;;;4.60;93.80;;;;;;4752883;30;20247;-79
2023/02/27 09:48:53;;;;;;;3.17;1.50;;;5.10;94.40;;;;;;4751592;30;20720;-75
2023/02/27 09:51:22;;;;;;;2.20;1.43;;;5.20;93.30;;;;;;4769610;30;20331;-80
2023/02/27 09:54:00;;;;;;;3.23;1.80;;;5.00;92.90;;;;;;4749462;30;20290;-71
2023/02/27 09:56:34;;;;;;;4.07;1.97;;;4.80;93.50;;;;;;4750897;30;20238;-75
2023/02/27 09:59:12;;;;;;;3.47;2.08;;;4.40;95.70;;;;;;4769466;30;20460;-77
2023/02/27 10:01:47;;;;;;;3.07;1.80;;;4.70;96.50;;;;;;4770167;30;20207;-75
2023/02/27 10:04:29;;;;;;;2.53;1.70;;;4.80;95.80;;;;;;4770434;30;20211;-74
2023/02/27 10:07:18;;;;;;;3.07;1.60;;;4.90;95.60;;;;;;4770282;30;20225;-80
2023/02/27 10:09:48;;;;;;;2.90;1.60;;;4.60;94.20;;;;;;4751320;30;20302;-76
2023/02/27 10:12:31;;;;;;;3.37;2.00;;;4.10;95.00;;;;;;4749982;30;20213;-78
2023/02/27 10:15:25;;;;;;;3.13;1.70;;;3.80;96.20;;;;;;4763701;30;20258;-82
2023/02/27 10:18:09;;;;;;;1.90;1.50;;;3.60;98.40;;;;;;4749926;30;20205;-81
2023/02/27 10:21:14;;;;;;;2.33;1.60;;;3.60;98.50;;;;;;4745626;30;20218;-78
2023/02/27 10:23:47;;;;;;;2.40;1.60;;;3.50;98.70;;;;;;4757272;30;20605;-74
2023/02/27 10:26:25;;;;;;;1.73;1.40;;;3.20;98.90;;;;;;4745143;30;20372;-76
2023/02/27 10:28:52;;;;;;;2.13;1.47;;;3.10;99.20;;;;;;4745228;30;20198;-80
2023/02/27 10:31:27;;;;;;;2.47;1.43;;;3.30;99.40;;;;;;4747941;30;20205;-75
2023/02/27 10:33:56;;;;;;;1.90;1.30;;;3.30;99.40;;;;;;4763834;30;20211;-77
2023/02/27 10:36:23;;;;;;;1.80;1.30;;;3.20;98.50;;;;;;4758998;30;20244;-75
2023/02/27 10:39:06;;;;;;;4.20;1.70;;;3.10;97.60;;;;;;4754996;30;20195;-78
2023/02/27 10:41:35;;;;;;;3.83;1.60;;;3.00;99.70;;;;;;4762434;30;20211;-78
2023/02/27 10:44:02;;;;;;;3.43;1.63;;;3.10;99.90;;;;;;4745068;30;20204;-77
2023/02/27 10:46:36;;;;;;;3.03;1.50;;;3.10;99.90;;;;;;4764459;30;20697;-74
2023/02/27 10:49:19;;;;;;;2.10;1.50;;;2.90;99.90;;;;;;4769791;30;20557;-75
2023/02/27 10:52:12;;;;;;;2.40;1.50;;;3.10;99.90;;;;;;4769343;30;20565;-76
2023/02/27 10:54:41;;;;;;;3.27;1.50;;;3.20;99.60;;;;;;4753211;30;20224;-81
2023/02/27 10:57:40;;;;;;;2.47;1.50;;;3.00;99.90;;;;;;4753300;30;20590;-77
2023/02/27 11:00:37;;;;;;;1.80;1.30;;;3.10;99.30;;;;;;4768346;30;20236;-77
2023/02/27 11:03:04;;;;;;;2.10;1.30;;;3.00;99.30;;;;;;4735687;30;20747;-79
2023/02/27 11:05:34;;;;;;;3.33;1.30;;;2.90;99.90;;;;;;4736533;30;20193;-80
2023/02/27 11:08:20;;;;;;;1.73;1.40;;;2.90;99.90;;;;;;4736234;30;20262;-79
2023/02/27 11:11:08;;;;;;;1.77;1.40;;;2.90;99.90;;;;;;4736423;30;20586;-79
2023/02/27 11:13:42;;;;;;;2.00;1.30;;;3.10;99.90;;;;;;4746752;30;20208;-75
2023/02/27 11:16:22;;;;;;;3.10;1.60;;;3.20;99.90;;;;;;4769502;30;20555;-76
2023/02/27 11:18:51;;;;;;;3.95;2.10;;;3.00;99.70;;;;;;4742008;30;20458;-70
2023/02/27 11:21:24;;;;;;;2.60;1.85;;;2.90;99.90;;;;;;4753863;30;20560;-70
2023/02/27 11:24:02;;;;;;;2.83;1.87;;;2.90;99.90;;;;;;4752713;30;20661;-70
2023/02/27 11:26:34;;;;;;;3.07;1.90;;;3.10;99.90;;;;;;4752292;30;20228;-72
2023/02/27 11:29:17;;;;;;;3.10;1.90;;;2.90;99.90;;;;;;4751838;30;20683;-69
2023/02/27 11:31:59;;;;;;;2.93;1.83;;;2.70;99.90;;;;;;4721453;30;20216;-71
2023/02/27 11:34:31;;;;;;;4.03;1.70;;;2.40;99.90;;;;;;4751556;30;20665;-77
2023/02/27 11:37:01;;;;;;;2.37;1.73;;;2.60;99.90;;;;;;4751727;30;20205;-72
2023/02/27 11:39:36;;;;;;;2.20;1.60;;;2.60;99.90;;;;;;4735638;30;20209;-74
2023/02/27 11:42:22;;;;;;;3.10;2.07;;;2.70;99.90;;;;;;4735725;30;20209;-78
2023/02/27 11:44:55;;;;;;;1.77;1.50;;;2.70;99.90;;;;;;4732541;30;20243;-80
2023/02/27 11:47:26;;;;;;;2.20;1.57;;;2.70;99.90;;;;;;4733839;30;20760;-78
2023/02/27 11:50:02;;;;;;;2.10;1.60;;;3.00;99.90;;;;;;4750180;30;20532;-79
2023/02/27 11:52:43;;;;;;;3.03;1.70;;;3.30;99.90;;;;;;4749812;30;20657;-70
2023/02/27 11:55:16;;;;;;;2.57;1.80;;;3.40;99.90;;;;;;4751181;30;20201;-69
2023/02/27 11:57:47;;;;;;;3.33;1.67;;;3.60;99.20;;;;;;4750212;30;20202;-71
2023/02/27 12:00:20;;;;;;;3.03;1.83;;;3.60;99.90;;;;;;4751363;30;20206;-80
2023/02/27 12:03:03;;;;;;;2.57;1.80;;;3.70;99.00;;;;;;4735587;30;20656;-76
2023/02/27 12:05:46;;;;;;;3.80;2.00;;;3.80;99.20;;;;;;4749845;30;20693;-69
2023/02/27 12:08:20;;;;;;;3.10;1.67;;;3.60;98.70;;;;;;4751116;30;20619;-76
2023/02/27 12:10:57;;;;;;;3.43;1.77;;;3.50;99.50;;;;;;4753343;30;20218;-69
2023/02/27 12:13:44;;;;;;;2.50;1.80;;;3.40;98.70;;;;;;4754689;30;20210;-76
2023/02/27 12:16:36;;;;;;;3.90;2.00;;;3.50;99.70;;;;;;4754106;30;20212;-78
2023/02/27 12:19:17;;;;;;;3.00;1.80;;;3.30;99.80;;;;;;4737837;30;20579;-71
2023/02/27 12:21:54;;;;;;;4.80;1.70;;;3.10;99.90;;;;;;4735885;30;20212;-81
2023/02/27 12:24:35;;;;;;;3.20;1.73;;;3.10;99.90;;;;;;4736947;30;20229;-77
2023/02/27 12:27:40;;;;;;;2.23;1.70;;;3.00;99.90;;;;;;4735833;30;20253;-76
2023/02/27 12:30:21;;;;;;;2.93;1.70;;;2.90;99.90;;;;;;4734264;30;20737;-75
2023/02/27 12:33:15;;;;;;;1.93;1.50;;;2.80;99.90;;;;;;4735259;30;20657;-72
2023/02/27 12:35:45;;;;;;;3.13;1.60;;;2.60;99.90;;;;;;4702408;30;20622;-75
2023/02/27 12:38:14;;;;;;;2.00;1.80;;;2.50;99.90;;;;;;4702448;30;20219;-84
2023/02/27 12:41:26;;;;;;;4.03;2.10;;;2.50;99.90;;;;;;4702337;30;20214;-80
2023/02/27 12:44:16;;;;;;;3.38;2.03;;;2.70;99.90;;;;;;4682373;30;20817;-81
2023/02/27 12:47:04;;;;;;;3.00;1.90;;;2.60;99.90;;;;;;4682101;30;20559;-81
2023/02/27 12:49:40;;;;;;;3.63;1.90;;;2.40;99.90;;;;;;4667888;30;20213;-71
2023/02/27 12:52:20;;;;;;;3.07;2.03;;;2.30;99.90;;;;;;4681865;30;20215;-74
2023/02/27 12:55:08;;;;;;;5.97;2.40;;;2.20;99.90;;;;;;4667544;30;20242;-74
2023/02/27 12:58:03;;;;;;;4.23;2.30;;;2.20;99.90;;;;;;4682643;30;20216;-80
2023/02/27 13:01:00;;;;;;;4.43;2.20;;;2.20;99.90;;;;;;4683103;30;20216;-75
2023/02/27 13:04:02;;;;;;;6.67;2.67;;;2.20;99.90;;;;;;4661813;30;20307;-76
2023/02/27 13:06:39;;;;;;;6.17;2.40;;;2.20;99.90;;;;;;4695782;30;20222;-79
2023/02/27 13:09:08;;;;;;;4.60;2.37;;;2.10;99.90;;;;;;4701641;30;20273;-74
2023/02/27 13:11:54;;;;;;;3.67;2.40;;;2.00;99.90;;;;;;4699141;30;20215;-71
2023/02/27 13:14:27;;;;;;;4.87;2.77;;;2.00;99.90;;;;;;4702414;30;20687;-74
2023/02/27 13:17:13;;;;;;;3.87;2.00;;;2.10;99.90;;;;;;4689355;30;20217;-83
2023/02/27 13:20:12;;;;;;;4.03;2.40;;;2.10;99.90;;;;;;4734669;30;20264;-74
2023/02/27 13:22:56;;;;;;;3.33;2.10;;;2.00;99.90;;;;;;4749261;30;20297;-70
2023/02/27 13:35:12;;;;;;;3.87;2.30;;;2.00;99.90;;;;;;4751768;30;20271;-76
2023/02/27 13:37:51;;;;;;;2.93;2.30;;;2.00;99.90;;;;;;4737112;30;20242;-73
2023/02/27 13:40:39;;;;;;;3.77;2.47;;;2.10;99.90;;;;;;4736645;30;20213;-77
2023/02/27 13:43:32;;;;;;;6.20;2.50;;;2.00;99.90;;;;;;4737053;30;20252;-80
2023/02/27 13:46:30;;;;;;;4.33;2.20;;;1.90;99.90;;;;;;4736930;30;20245;-77
2023/02/27 13:49:03;;;;;;;4.80;2.40;;;1.90;99.90;;;;;;4752889;30;20263;-77
2023/02/27 13:51:42;;;;;;;4.87;2.50;;;1.80;99.90;;;;;;4737033;30;20242;-82